sensor_id;sensor_type;location;lat;lon;timestamp;P1;durP1;ratioP1;P2;durP2;ratioP2
63034;SDS011;59750;53.356;-1.458;2022-08-19T00:01:40;4.72;;;2.67;;
63034;SDS011;59750;53.356;-1.458;2022-08-19T00:04:09;8.95;;;3.88;;
63034;SDS011;59750;53.356;-1.458;2022-08-19T00:06:37;3.65;;;2.70;;
63034;SDS011;59750;53.356;-1.458;2022-08-19T00:09:07;7.75;;;3.13;;
63034;SDS011;59750;53.356;-1.458;2022-08-19T00:11:35;3.45;;;3.03;;
63034;SDS011;59750;53.356;-1.458;2022-08-19T00:14:03;4.45;;;3.63;;
63034;SDS011;59750;53.356;-1.458;2022-08-19T00:16:32;5.40;;;4.30;;
63034;SDS011;59750;53.356;-1.458;2022-08-19T00:18:58;4.25;;;3.72;;
63034;SDS011;59750;53.356;-1.458;2022-08-19T00:21:24;4.28;;;3.88;;
63034;SDS011;59750;53.356;-1.458;2022-08-19T00:23:54;4.40;;;4.00;;
63034;SDS011;59750;53.356;-1.458;2022-08-19T00:26:25;5.57;;;3.90;;
63034;SDS011;59750;53.356;-1.458;2022-08-19T00:28:53;6.85;;;4.18;;
63034;SDS011;59750;53.356;-1.458;2022-08-19T00:31:19;4.22;;;3.78;;
63034;SDS011;59750;53.356;-1.458;2022-08-19T00:33:46;6.05;;;4.28;;
63034;SDS011;59750;53.356;-1.458;2022-08-19T00:36:14;6.70;;;4.20;;
63034;SDS011;59750;53.356;-1.458;2022-08-19T00:38:40;7.53;;;3.63;;
63034;SDS011;59750;53.356;-1.458;2022-08-19T00:41:10;4.25;;;2.33;;
63034;SDS011;59750;53.356;-1.458;2022-08-19T00:43:40;7.78;;;2.70;;
63034;SDS011;59750;53.356;-1.458;2022-08-19T00:46:06;2.97;;;2.38;;
63034;SDS011;59750;53.356;-1.458;2022-08-19T00:48:33;7.95;;;2.28;;
63034;SDS011;59750;53.356;-1.458;2022-08-19T00:51:00;5.63;;;2.28;;
63034;SDS011;59750;53.356;-1.458;2022-08-19T00:53:28;5.93;;;2.40;;
63034;SDS011;59750;53.356;-1.458;2022-08-19T00:55:56;4.65;;;2.63;;
63034;SDS011;59750;53.356;-1.458;2022-08-19T00:58:26;5.95;;;1.92;;
63034;SDS011;59750;53.356;-1.458;2022-08-19T01:00:55;8.05;;;2.72;;
63034;SDS011;59750;53.356;-1.458;2022-08-19T01:03:40;10.77;;;2.38;;
63034;SDS011;59750;53.356;-1.458;2022-08-19T01:06:06;8.07;;;2.72;;
63034;SDS011;59750;53.356;-1.458;2022-08-19T01:08:33;7.22;;;2.45;;
63034;SDS011;59750;53.356;-1.458;2022-08-19T01:10:59;7.10;;;2.40;;
63034;SDS011;59750;53.356;-1.458;2022-08-19T01:13:28;4.85;;;2.28;;
63034;SDS011;59750;53.356;-1.458;2022-08-19T01:16:00;4.55;;;1.88;;
63034;SDS011;59750;53.356;-1.458;2022-08-19T01:18:29;8.27;;;2.70;;
63034;SDS011;59750;53.356;-1.458;2022-08-19T01:21:00;8.88;;;2.42;;
63034;SDS011;59750;53.356;-1.458;2022-08-19T01:23:31;8.50;;;2.72;;
63034;SDS011;59750;53.356;-1.458;2022-08-19T01:26:17;6.13;;;2.22;;
63034;SDS011;59750;53.356;-1.458;2022-08-19T01:28:48;8.57;;;2.58;;
63034;SDS011;59750;53.356;-1.458;2022-08-19T01:31:19;6.82;;;1.85;;
63034;SDS011;59750;53.356;-1.458;2022-08-19T01:33:48;12.93;;;2.30;;
63034;SDS011;59750;53.356;-1.458;2022-08-19T01:36:25;11.15;;;3.90;;
63034;SDS011;59750;53.356;-1.458;2022-08-19T01:38:56;9.50;;;2.45;;
63034;SDS011;59750;53.356;-1.458;2022-08-19T01:41:23;10.82;;;2.60;;
63034;SDS011;59750;53.356;-1.458;2022-08-19T01:43:50;5.88;;;2.85;;
63034;SDS011;59750;53.356;-1.458;2022-08-19T01:46:19;7.20;;;2.42;;
63034;SDS011;59750;53.356;-1.458;2022-08-19T01:48:46;9.35;;;2.50;;
63034;SDS011;59750;53.356;-1.458;2022-08-19T01:51:15;5.93;;;2.30;;
63034;SDS011;59750;53.356;-1.458;2022-08-19T01:53:41;6.15;;;2.40;;
63034;SDS011;59750;53.356;-1.458;2022-08-19T01:56:08;5.18;;;2.13;;
63034;SDS011;59750;53.356;-1.458;2022-08-19T01:58:35;7.70;;;2.90;;
63034;SDS011;59750;53.356;-1.458;2022-08-19T02:01:06;11.52;;;2.17;;
63034;SDS011;59750;53.356;-1.458;2022-08-19T02:03:33;6.53;;;2.30;;
63034;SDS011;59750;53.356;-1.458;2022-08-19T02:06:00;9.32;;;2.45;;
63034;SDS011;59750;53.356;-1.458;2022-08-19T02:08:29;5.28;;;2.33;;
63034;SDS011;59750;53.356;-1.458;2022-08-19T02:10:56;9.52;;;2.60;;
63034;SDS011;59750;53.356;-1.458;2022-08-19T02:13:22;4.68;;;1.95;;
63034;SDS011;59750;53.356;-1.458;2022-08-19T02:15:50;12.38;;;2.20;;
63034;SDS011;59750;53.356;-1.458;2022-08-19T02:18:16;9.48;;;2.70;;
63034;SDS011;59750;53.356;-1.458;2022-08-19T02:20:42;7.78;;;2.10;;
63034;SDS011;59750;53.356;-1.458;2022-08-19T02:23:10;8.55;;;2.50;;
63034;SDS011;59750;53.356;-1.458;2022-08-19T02:25:37;8.32;;;2.42;;
63034;SDS011;59750;53.356;-1.458;2022-08-19T02:28:04;5.90;;;2.38;;
63034;SDS011;59750;53.356;-1.458;2022-08-19T02:30:33;8.18;;;3.28;;
63034;SDS011;59750;53.356;-1.458;2022-08-19T02:33:00;8.50;;;2.33;;
63034;SDS011;59750;53.356;-1.458;2022-08-19T02:35:26;5.70;;;2.30;;
63034;SDS011;59750;53.356;-1.458;2022-08-19T02:37:52;11.15;;;3.20;;
63034;SDS011;59750;53.356;-1.458;2022-08-19T02:40:37;10.05;;;2.40;;
63034;SDS011;59750;53.356;-1.458;2022-08-19T02:43:04;6.90;;;2.60;;
63034;SDS011;59750;53.356;-1.458;2022-08-19T02:45:33;7.32;;;2.63;;
63034;SDS011;59750;53.356;-1.458;2022-08-19T02:48:01;9.65;;;2.88;;
63034;SDS011;59750;53.356;-1.458;2022-08-19T02:50:29;10.00;;;2.33;;
63034;SDS011;59750;53.356;-1.458;2022-08-19T02:52:55;8.57;;;2.47;;
63034;SDS011;59750;53.356;-1.458;2022-08-19T02:55:21;6.78;;;2.60;;
63034;SDS011;59750;53.356;-1.458;2022-08-19T02:57:48;8.10;;;2.08;;
63034;SDS011;59750;53.356;-1.458;2022-08-19T03:00:15;7.43;;;2.35;;
63034;SDS011;59750;53.356;-1.458;2022-08-19T03:02:41;11.85;;;2.50;;
63034;SDS011;59750;53.356;-1.458;2022-08-19T03:05:08;8.70;;;2.90;;
63034;SDS011;59750;53.356;-1.458;2022-08-19T03:07:35;5.47;;;2.00;;
63034;SDS011;59750;53.356;-1.458;2022-08-19T03:10:02;4.68;;;2.20;;
63034;SDS011;59750;53.356;-1.458;2022-08-19T03:12:29;8.65;;;2.90;;
63034;SDS011;59750;53.356;-1.458;2022-08-19T03:14:56;9.15;;;1.98;;
63034;SDS011;59750;53.356;-1.458;2022-08-19T03:17:22;7.55;;;1.85;;
63034;SDS011;59750;53.356;-1.458;2022-08-19T03:19:48;5.90;;;2.22;;
63034;SDS011;59750;53.356;-1.458;2022-08-19T03:22:15;12.25;;;2.10;;
63034;SDS011;59750;53.356;-1.458;2022-08-19T03:24:40;8.95;;;2.00;;
63034;SDS011;59750;53.356;-1.458;2022-08-19T03:27:06;8.60;;;2.10;;
63034;SDS011;59750;53.356;-1.458;2022-08-19T03:29:32;11.70;;;2.45;;
63034;SDS011;59750;53.356;-1.458;2022-08-19T03:32:03;6.95;;;1.90;;
63034;SDS011;59750;53.356;-1.458;2022-08-19T03:34:31;7.28;;;2.03;;
63034;SDS011;59750;53.356;-1.458;2022-08-19T03:37:03;11.73;;;2.55;;
63034;SDS011;59750;53.356;-1.458;2022-08-19T03:39:32;9.73;;;2.95;;
63034;SDS011;59750;53.356;-1.458;2022-08-19T03:41:59;6.88;;;2.55;;
63034;SDS011;59750;53.356;-1.458;2022-08-19T03:44:27;9.02;;;2.67;;
63034;SDS011;59750;53.356;-1.458;2022-08-19T03:46:56;8.27;;;2.10;;
63034;SDS011;59750;53.356;-1.458;2022-08-19T03:49:25;9.88;;;2.55;;
63034;SDS011;59750;53.356;-1.458;2022-08-19T03:51:52;7.00;;;1.88;;
63034;SDS011;59750;53.356;-1.458;2022-08-19T03:54:20;9.95;;;2.22;;
63034;SDS011;59750;53.356;-1.458;2022-08-19T03:56:49;7.80;;;2.05;;
63034;SDS011;59750;53.356;-1.458;2022-08-19T03:59:19;7.22;;;2.00;;
63034;SDS011;59750;53.356;-1.458;2022-08-19T04:01:51;6.45;;;1.65;;
63034;SDS011;59750;53.356;-1.458;2022-08-19T04:04:19;8.00;;;2.20;;
63034;SDS011;59750;53.356;-1.458;2022-08-19T04:06:47;10.90;;;2.50;;
63034;SDS011;59750;53.356;-1.458;2022-08-19T04:09:13;7.45;;;2.05;;
63034;SDS011;59750;53.356;-1.458;2022-08-19T04:11:46;10.70;;;2.08;;
63034;SDS011;59750;53.356;-1.458;2022-08-19T04:14:17;4.72;;;1.95;;
63034;SDS011;59750;53.356;-1.458;2022-08-19T04:16:45;7.88;;;1.90;;
63034;SDS011;59750;53.356;-1.458;2022-08-19T04:19:13;7.95;;;2.35;;
63034;SDS011;59750;53.356;-1.458;2022-08-19T04:21:40;13.07;;;2.17;;
63034;SDS011;59750;53.356;-1.458;2022-08-19T04:24:10;6.45;;;1.85;;
63034;SDS011;59750;53.356;-1.458;2022-08-19T04:26:38;9.20;;;2.40;;
63034;SDS011;59750;53.356;-1.458;2022-08-19T04:29:05;8.15;;;2.63;;
63034;SDS011;59750;53.356;-1.458;2022-08-19T04:31:34;7.32;;;1.77;;
63034;SDS011;59750;53.356;-1.458;2022-08-19T04:34:02;8.80;;;2.03;;
63034;SDS011;59750;53.356;-1.458;2022-08-19T04:36:31;8.80;;;2.20;;
63034;SDS011;59750;53.356;-1.458;2022-08-19T04:39:01;5.60;;;1.88;;
63034;SDS011;59750;53.356;-1.458;2022-08-19T04:41:30;7.57;;;2.38;;
63034;SDS011;59750;53.356;-1.458;2022-08-19T04:44:14;8.73;;;1.63;;
63034;SDS011;59750;53.356;-1.458;2022-08-19T04:46:43;10.35;;;2.85;;
63034;SDS011;59750;53.356;-1.458;2022-08-19T04:49:10;6.80;;;2.10;;
63034;SDS011;59750;53.356;-1.458;2022-08-19T04:51:39;4.30;;;1.67;;
63034;SDS011;59750;53.356;-1.458;2022-08-19T04:54:07;6.00;;;1.88;;
63034;SDS011;59750;53.356;-1.458;2022-08-19T04:56:34;8.23;;;2.72;;
63034;SDS011;59750;53.356;-1.458;2022-08-19T04:58:59;7.55;;;1.77;;
63034;SDS011;59750;53.356;-1.458;2022-08-19T05:01:32;3.73;;;1.67;;
63034;SDS011;59750;53.356;-1.458;2022-08-19T05:03:59;9.85;;;1.83;;
63034;SDS011;59750;53.356;-1.458;2022-08-19T05:06:27;6.25;;;1.95;;
63034;SDS011;59750;53.356;-1.458;2022-08-19T05:08:54;2.67;;;1.45;;
63034;SDS011;59750;53.356;-1.458;2022-08-19T05:11:22;5.18;;;1.70;;
63034;SDS011;59750;53.356;-1.458;2022-08-19T05:13:51;6.47;;;1.98;;
63034;SDS011;59750;53.356;-1.458;2022-08-19T05:16:18;5.05;;;1.48;;
63034;SDS011;59750;53.356;-1.458;2022-08-19T05:18:47;7.00;;;1.83;;
63034;SDS011;59750;53.356;-1.458;2022-08-19T05:21:32;5.22;;;1.92;;
63034;SDS011;59750;53.356;-1.458;2022-08-19T05:24:18;8.52;;;2.33;;
63034;SDS011;59750;53.356;-1.458;2022-08-19T05:26:48;8.93;;;1.80;;
63034;SDS011;59750;53.356;-1.458;2022-08-19T05:29:16;4.30;;;1.70;;
63034;SDS011;59750;53.356;-1.458;2022-08-19T05:31:46;6.32;;;2.33;;
63034;SDS011;59750;53.356;-1.458;2022-08-19T05:34:15;5.13;;;1.50;;
63034;SDS011;59750;53.356;-1.458;2022-08-19T05:36:43;6.03;;;2.38;;
63034;SDS011;59750;53.356;-1.458;2022-08-19T05:39:13;8.95;;;2.35;;
63034;SDS011;59750;53.356;-1.458;2022-08-19T05:41:45;6.72;;;2.35;;
63034;SDS011;59750;53.356;-1.458;2022-08-19T05:44:13;5.68;;;1.77;;
63034;SDS011;59750;53.356;-1.458;2022-08-19T05:46:42;2.58;;;1.95;;
63034;SDS011;59750;53.356;-1.458;2022-08-19T05:49:12;9.90;;;1.65;;
63034;SDS011;59750;53.356;-1.458;2022-08-19T05:51:41;6.80;;;1.95;;
63034;SDS011;59750;53.356;-1.458;2022-08-19T05:54:08;5.75;;;1.70;;
63034;SDS011;59750;53.356;-1.458;2022-08-19T05:56:36;4.05;;;1.58;;
63034;SDS011;59750;53.356;-1.458;2022-08-19T05:59:03;5.65;;;1.75;;
63034;SDS011;59750;53.356;-1.458;2022-08-19T06:01:35;10.40;;;2.05;;
63034;SDS011;59750;53.356;-1.458;2022-08-19T06:04:02;6.55;;;1.63;;
63034;SDS011;59750;53.356;-1.458;2022-08-19T06:06:30;6.82;;;1.85;;
63034;SDS011;59750;53.356;-1.458;2022-08-19T06:08:56;9.65;;;2.15;;
63034;SDS011;59750;53.356;-1.458;2022-08-19T06:11:24;5.25;;;1.67;;
63034;SDS011;59750;53.356;-1.458;2022-08-19T06:14:00;6.28;;;1.77;;
63034;SDS011;59750;53.356;-1.458;2022-08-19T06:16:29;5.53;;;2.08;;
63034;SDS011;59750;53.356;-1.458;2022-08-19T06:19:00;5.00;;;1.70;;
63034;SDS011;59750;53.356;-1.458;2022-08-19T06:21:29;6.90;;;1.90;;
63034;SDS011;59750;53.356;-1.458;2022-08-19T06:23:56;8.23;;;2.55;;
63034;SDS011;59750;53.356;-1.458;2022-08-19T06:26:23;5.78;;;1.92;;
63034;SDS011;59750;53.356;-1.458;2022-08-19T06:28:50;6.85;;;2.60;;
63034;SDS011;59750;53.356;-1.458;2022-08-19T06:31:17;5.18;;;1.85;;
63034;SDS011;59750;53.356;-1.458;2022-08-19T06:33:46;5.25;;;1.80;;
63034;SDS011;59750;53.356;-1.458;2022-08-19T06:36:19;11.38;;;3.53;;
63034;SDS011;59750;53.356;-1.458;2022-08-19T06:38:47;7.10;;;2.22;;
63034;SDS011;59750;53.356;-1.458;2022-08-19T06:41:14;7.07;;;2.22;;
63034;SDS011;59750;53.356;-1.458;2022-08-19T06:43:40;8.25;;;2.28;;
63034;SDS011;59750;53.356;-1.458;2022-08-19T06:46:11;6.30;;;2.40;;
63034;SDS011;59750;53.356;-1.458;2022-08-19T06:48:39;5.95;;;2.00;;
63034;SDS011;59750;53.356;-1.458;2022-08-19T06:51:06;7.55;;;1.85;;
63034;SDS011;59750;53.356;-1.458;2022-08-19T06:53:33;7.32;;;2.70;;
63034;SDS011;59750;53.356;-1.458;2022-08-19T06:55:59;6.60;;;2.20;;
63034;SDS011;59750;53.356;-1.458;2022-08-19T06:58:28;7.57;;;2.28;;
63034;SDS011;59750;53.356;-1.458;2022-08-19T07:00:59;10.70;;;2.80;;
63034;SDS011;59750;53.356;-1.458;2022-08-19T07:03:31;9.65;;;2.50;;
63034;SDS011;59750;53.356;-1.458;2022-08-19T07:06:04;8.45;;;2.13;;
63034;SDS011;59750;53.356;-1.458;2022-08-19T07:08:35;11.07;;;2.33;;
63034;SDS011;59750;53.356;-1.458;2022-08-19T07:11:06;5.88;;;1.98;;
63034;SDS011;59750;53.356;-1.458;2022-08-19T07:13:33;7.72;;;2.45;;
63034;SDS011;59750;53.356;-1.458;2022-08-19T07:16:04;7.90;;;2.60;;
63034;SDS011;59750;53.356;-1.458;2022-08-19T07:18:33;14.02;;;2.28;;
63034;SDS011;59750;53.356;-1.458;2022-08-19T07:21:08;9.02;;;3.13;;
63034;SDS011;59750;53.356;-1.458;2022-08-19T07:23:38;7.65;;;2.03;;
63034;SDS011;59750;53.356;-1.458;2022-08-19T07:26:06;8.70;;;1.90;;
63034;SDS011;59750;53.356;-1.458;2022-08-19T07:28:35;7.25;;;2.13;;
63034;SDS011;59750;53.356;-1.458;2022-08-19T07:31:05;12.93;;;2.50;;
63034;SDS011;59750;53.356;-1.458;2022-08-19T07:33:33;8.07;;;1.85;;
63034;SDS011;59750;53.356;-1.458;2022-08-19T07:36:04;9.20;;;2.40;;
63034;SDS011;59750;53.356;-1.458;2022-08-19T07:38:33;12.75;;;2.75;;
63034;SDS011;59750;53.356;-1.458;2022-08-19T07:41:00;9.43;;;2.22;;
63034;SDS011;59750;53.356;-1.458;2022-08-19T07:43:27;8.05;;;1.90;;
63034;SDS011;59750;53.356;-1.458;2022-08-19T07:45:55;9.55;;;2.30;;
63034;SDS011;59750;53.356;-1.458;2022-08-19T07:48:23;9.63;;;2.53;;
63034;SDS011;59750;53.356;-1.458;2022-08-19T07:50:52;7.60;;;2.30;;
63034;SDS011;59750;53.356;-1.458;2022-08-19T07:53:21;8.77;;;2.10;;
63034;SDS011;59750;53.356;-1.458;2022-08-19T07:55:48;8.43;;;3.67;;
63034;SDS011;59750;53.356;-1.458;2022-08-19T07:58:16;11.95;;;3.38;;
63034;SDS011;59750;53.356;-1.458;2022-08-19T08:00:45;8.77;;;2.90;;
63034;SDS011;59750;53.356;-1.458;2022-08-19T08:03:14;7.38;;;2.75;;
63034;SDS011;59750;53.356;-1.458;2022-08-19T08:05:42;9.70;;;2.55;;
63034;SDS011;59750;53.356;-1.458;2022-08-19T08:08:27;8.27;;;2.38;;
63034;SDS011;59750;53.356;-1.458;2022-08-19T08:10:57;10.85;;;2.60;;
63034;SDS011;59750;53.356;-1.458;2022-08-19T08:13:24;6.95;;;1.77;;
63034;SDS011;59750;53.356;-1.458;2022-08-19T08:15:50;7.97;;;2.05;;
63034;SDS011;59750;53.356;-1.458;2022-08-19T08:18:16;7.85;;;2.58;;
63034;SDS011;59750;53.356;-1.458;2022-08-19T08:20:44;10.63;;;2.08;;
63034;SDS011;59750;53.356;-1.458;2022-08-19T08:23:10;8.18;;;1.85;;
63034;SDS011;59750;53.356;-1.458;2022-08-19T08:25:56;8.20;;;2.00;;
63034;SDS011;59750;53.356;-1.458;2022-08-19T08:28:23;8.00;;;1.83;;
63034;SDS011;59750;53.356;-1.458;2022-08-19T08:30:53;9.63;;;2.35;;
63034;SDS011;59750;53.356;-1.458;2022-08-19T08:33:23;10.38;;;2.17;;
63034;SDS011;59750;53.356;-1.458;2022-08-19T08:35:52;7.45;;;1.52;;
63034;SDS011;59750;53.356;-1.458;2022-08-19T08:38:18;9.52;;;2.05;;
63034;SDS011;59750;53.356;-1.458;2022-08-19T08:40:47;7.45;;;1.67;;
63034;SDS011;59750;53.356;-1.458;2022-08-19T08:51:14;8.00;;;2.30;;
63034;SDS011;59750;53.356;-1.458;2022-08-19T08:53:47;8.57;;;2.03;;
63034;SDS011;59750;53.356;-1.458;2022-08-19T08:56:15;8.27;;;1.83;;
63034;SDS011;59750;53.356;-1.458;2022-08-19T08:58:46;11.05;;;2.10;;
63034;SDS011;59750;53.356;-1.458;2022-08-19T09:01:21;8.65;;;1.60;;
63034;SDS011;59750;53.356;-1.458;2022-08-19T09:03:48;7.78;;;1.60;;
63034;SDS011;59750;53.356;-1.458;2022-08-19T09:09:03;6.25;;;1.83;;
63034;SDS011;59750;53.356;-1.458;2022-08-19T09:14:14;7.78;;;1.30;;
63034;SDS011;59750;53.356;-1.458;2022-08-19T09:16:44;6.00;;;1.80;;
63034;SDS011;59750;53.356;-1.458;2022-08-19T09:19:11;8.80;;;1.90;;
63034;SDS011;59750;53.356;-1.458;2022-08-19T09:21:38;8.88;;;1.52;;
63034;SDS011;59750;53.356;-1.458;2022-08-19T09:24:05;5.18;;;1.35;;
63034;SDS011;59750;53.356;-1.458;2022-08-19T09:26:32;7.93;;;2.00;;
63034;SDS011;59750;53.356;-1.458;2022-08-19T09:28:59;5.90;;;1.70;;
63034;SDS011;59750;53.356;-1.458;2022-08-19T09:31:28;7.13;;;1.77;;
63034;SDS011;59750;53.356;-1.458;2022-08-19T09:33:55;6.13;;;1.60;;
63034;SDS011;59750;53.356;-1.458;2022-08-19T09:36:22;9.00;;;1.60;;
63034;SDS011;59750;53.356;-1.458;2022-08-19T09:38:51;10.05;;;2.15;;
63034;SDS011;59750;53.356;-1.458;2022-08-19T09:41:20;5.82;;;1.55;;
63034;SDS011;59750;53.356;-1.458;2022-08-19T09:43:49;5.85;;;1.42;;
63034;SDS011;59750;53.356;-1.458;2022-08-19T09:46:18;4.40;;;1.10;;
63034;SDS011;59750;53.356;-1.458;2022-08-19T09:48:48;6.10;;;1.40;;
63034;SDS011;59750;53.356;-1.458;2022-08-19T09:51:18;8.10;;;1.20;;
63034;SDS011;59750;53.356;-1.458;2022-08-19T09:53:47;5.03;;;1.33;;
63034;SDS011;59750;53.356;-1.458;2022-08-19T09:56:16;8.73;;;2.05;;
63034;SDS011;59750;53.356;-1.458;2022-08-19T09:58:45;6.85;;;1.55;;
63034;SDS011;59750;53.356;-1.458;2022-08-19T10:03:58;7.28;;;1.40;;
63034;SDS011;59750;53.356;-1.458;2022-08-19T10:06:28;7.82;;;1.58;;
63034;SDS011;59750;53.356;-1.458;2022-08-19T10:08:59;5.47;;;1.45;;
63034;SDS011;59750;53.356;-1.458;2022-08-19T10:11:26;7.28;;;1.67;;
63034;SDS011;59750;53.356;-1.458;2022-08-19T10:13:53;4.10;;;1.38;;
63034;SDS011;59750;53.356;-1.458;2022-08-19T10:16:21;7.35;;;1.83;;
63034;SDS011;59750;53.356;-1.458;2022-08-19T10:18:49;6.00;;;1.35;;
63034;SDS011;59750;53.356;-1.458;2022-08-19T10:21:18;3.92;;;1.58;;
63034;SDS011;59750;53.356;-1.458;2022-08-19T10:23:51;7.05;;;1.40;;
63034;SDS011;59750;53.356;-1.458;2022-08-19T10:26:23;7.82;;;1.85;;
63034;SDS011;59750;53.356;-1.458;2022-08-19T10:28:55;4.72;;;1.30;;
63034;SDS011;59750;53.356;-1.458;2022-08-19T10:31:25;6.65;;;1.85;;
63034;SDS011;59750;53.356;-1.458;2022-08-19T10:33:55;7.47;;;1.40;;
63034;SDS011;59750;53.356;-1.458;2022-08-19T10:36:25;7.53;;;1.40;;
63034;SDS011;59750;53.356;-1.458;2022-08-19T10:38:54;4.20;;;1.00;;
63034;SDS011;59750;53.356;-1.458;2022-08-19T10:41:25;6.90;;;1.48;;
63034;SDS011;59750;53.356;-1.458;2022-08-19T10:43:57;7.10;;;1.88;;
63034;SDS011;59750;53.356;-1.458;2022-08-19T10:46:28;5.75;;;1.58;;
63034;SDS011;59750;53.356;-1.458;2022-08-19T10:49:00;6.90;;;1.50;;
63034;SDS011;59750;53.356;-1.458;2022-08-19T10:51:28;4.68;;;1.60;;
63034;SDS011;59750;53.356;-1.458;2022-08-19T10:54:13;6.72;;;1.70;;
63034;SDS011;59750;53.356;-1.458;2022-08-19T10:56:40;8.73;;;1.92;;
63034;SDS011;59750;53.356;-1.458;2022-08-19T10:59:27;7.38;;;1.50;;
63034;SDS011;59750;53.356;-1.458;2022-08-19T11:01:58;5.88;;;2.05;;
63034;SDS011;59750;53.356;-1.458;2022-08-19T11:06:52;5.55;;;1.75;;
63034;SDS011;59750;53.356;-1.458;2022-08-19T11:09:20;8.18;;;1.55;;
63034;SDS011;59750;53.356;-1.458;2022-08-19T11:11:50;7.72;;;2.88;;
63034;SDS011;59750;53.356;-1.458;2022-08-19T11:14:19;7.10;;;2.25;;
63034;SDS011;59750;53.356;-1.458;2022-08-19T11:16:47;6.35;;;1.77;;
63034;SDS011;59750;53.356;-1.458;2022-08-19T11:19:15;8.68;;;2.05;;
63034;SDS011;59750;53.356;-1.458;2022-08-19T11:21:46;6.88;;;2.10;;
63034;SDS011;59750;53.356;-1.458;2022-08-19T11:24:15;9.98;;;1.63;;
63034;SDS011;59750;53.356;-1.458;2022-08-19T11:26:45;8.53;;;2.63;;
63034;SDS011;59750;53.356;-1.458;2022-08-19T11:29:15;8.85;;;1.73;;
63034;SDS011;59750;53.356;-1.458;2022-08-19T11:31:44;4.05;;;0.98;;
63034;SDS011;59750;53.356;-1.458;2022-08-19T11:34:13;7.72;;;1.05;;
63034;SDS011;59750;53.356;-1.458;2022-08-19T11:36:44;5.93;;;1.70;;
63034;SDS011;59750;53.356;-1.458;2022-08-19T11:39:14;7.47;;;1.30;;
63034;SDS011;59750;53.356;-1.458;2022-08-19T11:41:42;6.10;;;1.67;;
63034;SDS011;59750;53.356;-1.458;2022-08-19T11:44:09;5.97;;;1.58;;
63034;SDS011;59750;53.356;-1.458;2022-08-19T11:46:37;7.30;;;1.90;;
63034;SDS011;59750;53.356;-1.458;2022-08-19T11:49:04;4.95;;;1.25;;
63034;SDS011;59750;53.356;-1.458;2022-08-19T11:51:33;3.55;;;1.77;;
63034;SDS011;59750;53.356;-1.458;2022-08-19T11:53:59;8.00;;;1.30;;
63034;SDS011;59750;53.356;-1.458;2022-08-19T11:56:26;5.22;;;0.90;;
63034;SDS011;59750;53.356;-1.458;2022-08-19T11:58:53;5.28;;;1.00;;
63034;SDS011;59750;53.356;-1.458;2022-08-19T12:01:23;5.00;;;1.40;;
63034;SDS011;59750;53.356;-1.458;2022-08-19T12:03:53;5.55;;;1.60;;
63034;SDS011;59750;53.356;-1.458;2022-08-19T12:06:23;4.10;;;1.30;;
63034;SDS011;59750;53.356;-1.458;2022-08-19T12:08:56;4.93;;;1.10;;
63034;SDS011;59750;53.356;-1.458;2022-08-19T12:11:24;7.78;;;1.17;;
63034;SDS011;59750;53.356;-1.458;2022-08-19T12:13:52;8.57;;;1.67;;
63034;SDS011;59750;53.356;-1.458;2022-08-19T12:16:21;4.70;;;1.70;;
63034;SDS011;59750;53.356;-1.458;2022-08-19T12:18:50;4.72;;;1.73;;
63034;SDS011;59750;53.356;-1.458;2022-08-19T12:21:18;8.32;;;2.20;;
63034;SDS011;59750;53.356;-1.458;2022-08-19T12:23:49;4.55;;;1.33;;
63034;SDS011;59750;53.356;-1.458;2022-08-19T12:26:17;7.43;;;1.00;;
63034;SDS011;59750;53.356;-1.458;2022-08-19T12:28:43;3.55;;;1.20;;
63034;SDS011;59750;53.356;-1.458;2022-08-19T12:31:10;7.65;;;2.42;;
63034;SDS011;59750;53.356;-1.458;2022-08-19T12:33:38;5.32;;;1.50;;
63034;SDS011;59750;53.356;-1.458;2022-08-19T12:36:05;4.85;;;1.77;;
63034;SDS011;59750;53.356;-1.458;2022-08-19T12:38:34;3.92;;;1.02;;
63034;SDS011;59750;53.356;-1.458;2022-08-19T12:41:01;2.63;;;1.10;;
63034;SDS011;59750;53.356;-1.458;2022-08-19T12:43:32;5.22;;;1.00;;
63034;SDS011;59750;53.356;-1.458;2022-08-19T12:46:01;5.35;;;1.08;;
63034;SDS011;59750;53.356;-1.458;2022-08-19T12:48:29;4.53;;;0.80;;
63034;SDS011;59750;53.356;-1.458;2022-08-19T12:50:57;5.93;;;1.33;;
63034;SDS011;59750;53.356;-1.458;2022-08-19T12:53:23;3.85;;;0.80;;
63034;SDS011;59750;53.356;-1.458;2022-08-19T12:55:56;3.90;;;0.80;;
63034;SDS011;59750;53.356;-1.458;2022-08-19T12:58:26;1.98;;;0.85;;
63034;SDS011;59750;53.356;-1.458;2022-08-19T13:00:54;3.05;;;0.70;;
63034;SDS011;59750;53.356;-1.458;2022-08-19T13:03:20;2.20;;;0.60;;
63034;SDS011;59750;53.356;-1.458;2022-08-19T13:05:54;5.82;;;1.67;;
63034;SDS011;59750;53.356;-1.458;2022-08-19T13:08:23;5.05;;;1.33;;
63034;SDS011;59750;53.356;-1.458;2022-08-19T13:10:49;1.80;;;0.80;;
63034;SDS011;59750;53.356;-1.458;2022-08-19T13:13:15;3.17;;;0.75;;
63034;SDS011;59750;53.356;-1.458;2022-08-19T13:15:42;2.53;;;0.90;;
63034;SDS011;59750;53.356;-1.458;2022-08-19T13:18:11;3.75;;;1.02;;
63034;SDS011;59750;53.356;-1.458;2022-08-19T13:20:40;2.08;;;0.50;;
63034;SDS011;59750;53.356;-1.458;2022-08-19T13:23:07;2.58;;;0.50;;
63034;SDS011;59750;53.356;-1.458;2022-08-19T13:25:34;2.53;;;0.60;;
63034;SDS011;59750;53.356;-1.458;2022-08-19T13:28:03;2.55;;;0.50;;
63034;SDS011;59750;53.356;-1.458;2022-08-19T13:30:29;2.38;;;0.40;;
63034;SDS011;59750;53.356;-1.458;2022-08-19T13:33:14;2.25;;;0.60;;
63034;SDS011;59750;53.356;-1.458;2022-08-19T13:38:09;3.47;;;0.50;;
63034;SDS011;59750;53.356;-1.458;2022-08-19T13:40:38;2.95;;;0.60;;
63034;SDS011;59750;53.356;-1.458;2022-08-19T13:43:06;5.00;;;0.73;;
63034;SDS011;59750;53.356;-1.458;2022-08-19T13:45:34;1.83;;;0.70;;
63034;SDS011;59750;53.356;-1.458;2022-08-19T13:48:02;3.08;;;0.70;;
63034;SDS011;59750;53.356;-1.458;2022-08-19T13:50:37;5.47;;;0.80;;
63034;SDS011;59750;53.356;-1.458;2022-08-19T13:53:07;4.30;;;0.45;;
63034;SDS011;59750;53.356;-1.458;2022-08-19T13:55:37;5.15;;;0.80;;
63034;SDS011;59750;53.356;-1.458;2022-08-19T13:58:05;2.63;;;0.77;;
63034;SDS011;59750;53.356;-1.458;2022-08-19T14:00:33;1.80;;;0.50;;
63034;SDS011;59750;53.356;-1.458;2022-08-19T14:03:03;1.60;;;0.60;;
63034;SDS011;59750;53.356;-1.458;2022-08-19T14:05:29;1.70;;;0.60;;
63034;SDS011;59750;53.356;-1.458;2022-08-19T14:07:57;4.15;;;0.70;;
63034;SDS011;59750;53.356;-1.458;2022-08-19T14:10:26;1.73;;;0.60;;
63034;SDS011;59750;53.356;-1.458;2022-08-19T14:12:54;2.05;;;0.60;;
63034;SDS011;59750;53.356;-1.458;2022-08-19T14:15:23;2.50;;;0.55;;
63034;SDS011;59750;53.356;-1.458;2022-08-19T14:17:51;2.25;;;0.70;;
63034;SDS011;59750;53.356;-1.458;2022-08-19T14:20:18;2.67;;;1.00;;
63034;SDS011;59750;53.356;-1.458;2022-08-19T14:22:46;1.85;;;0.45;;
63034;SDS011;59750;53.356;-1.458;2022-08-19T14:25:17;7.43;;;0.82;;
63034;SDS011;59750;53.356;-1.458;2022-08-19T14:27:46;3.33;;;0.90;;
63034;SDS011;59750;53.356;-1.458;2022-08-19T14:30:16;2.55;;;0.60;;
63034;SDS011;59750;53.356;-1.458;2022-08-19T14:32:45;3.60;;;0.75;;
63034;SDS011;59750;53.356;-1.458;2022-08-19T14:35:13;2.17;;;0.60;;
63034;SDS011;59750;53.356;-1.458;2022-08-19T14:37:41;2.90;;;1.33;;
63034;SDS011;59750;53.356;-1.458;2022-08-19T14:40:10;2.60;;;0.77;;
63034;SDS011;59750;53.356;-1.458;2022-08-19T14:42:39;1.95;;;0.90;;
63034;SDS011;59750;53.356;-1.458;2022-08-19T14:45:05;3.05;;;0.80;;
63034;SDS011;59750;53.356;-1.458;2022-08-19T14:47:32;1.38;;;0.55;;
63034;SDS011;59750;53.356;-1.458;2022-08-19T14:49:59;3.15;;;0.75;;
63034;SDS011;59750;53.356;-1.458;2022-08-19T14:52:25;4.43;;;1.00;;
63034;SDS011;59750;53.356;-1.458;2022-08-19T14:54:51;4.55;;;0.88;;
63034;SDS011;59750;53.356;-1.458;2022-08-19T14:57:19;4.18;;;0.95;;
63034;SDS011;59750;53.356;-1.458;2022-08-19T14:59:46;5.07;;;0.90;;
63034;SDS011;59750;53.356;-1.458;2022-08-19T15:02:12;3.70;;;0.80;;
63034;SDS011;59750;53.356;-1.458;2022-08-19T15:04:38;2.38;;;0.85;;